Time;durP1;ratioP1;P1;durP2;ratioP2;P2;SDS_P1;SDS_P2;PMS_P1;PMS_P2;Temp;Humidity;BMP_temperature;BMP_pressure;BME280_temperature;BME280_humidity;BME280_pressure;Samples;Min_cycle;Max_cycle;Signal;HPM_P1;HPM_P2
2021/04/06 00:01:48;;;;;;;10.67;2.67;;;;;;;;;;5071247;28;20041;-80
2021/04/06 00:04:19;;;;;;;9.98;2.38;;;;;;;;;;5072700;28;20473;-80
2021/04/06 00:06:46;;;;;;;13.17;2.83;;;;;;;;;;5072483;28;20044;-80
2021/04/06 00:09:13;;;;;;;15.83;2.87;;;;;;;;;;5071376;28;20380;-80
2021/04/06 00:11:40;;;;;;;11.57;3.37;;;;;;;;;;5072478;28;20020;-80
2021/04/06 00:14:05;;;;;;;16.90;2.73;;;;;;;;;;5071162;28;20028;-80
2021/04/06 00:16:32;;;;;;;14.53;3.03;;;;;;;;;;5071022;28;20009;-80
2021/04/06 00:18:58;;;;;;;16.47;3.27;;;;;;;;;;5071265;28;20017;-79
2021/04/06 00:21:23;;;;;;;14.10;3.10;;;;;;;;;;5072476;28;20095;-79
2021/04/06 00:23:50;;;;;;;15.67;2.53;;;;;;;;;;5071165;28;20020;-79
2021/04/06 00:26:15;;;;;;;18.93;2.43;;;;;;;;;;5071128;28;20116;-79
2021/04/06 00:28:42;;;;;;;12.27;2.23;;;;;;;;;;5070824;28;20103;-79
2021/04/06 00:31:08;;;;;;;18.40;2.70;;;;;;;;;;5070883;28;20115;-79
2021/04/06 00:33:36;;;;;;;17.40;2.23;;;;;;;;;;5070990;28;20055;-79
2021/04/06 00:36:02;;;;;;;19.03;2.67;;;;;;;;;;5072259;28;20020;-79
2021/04/06 00:38:30;;;;;;;15.30;2.20;;;;;;;;;;5070756;28;20031;-79
2021/04/06 00:40:57;;;;;;;20.47;2.83;;;;;;;;;;5070752;28;20107;-79
2021/04/06 00:43:31;;;;;;;27.50;3.23;;;;;;;;;;5070992;28;20472;-79
2021/04/06 00:45:56;;;;;;;17.87;2.00;;;;;;;;;;5102155;28;20024;-79
2021/04/06 00:48:21;;;;;;;14.33;2.10;;;;;;;;;;5070691;28;20021;-80
2021/04/06 00:51:06;;;;;;;14.03;1.73;;;;;;;;;;5070689;28;20040;-79
2021/04/06 00:53:50;;;;;;;17.87;2.63;;;;;;;;;;5070750;28;20021;-80
2021/04/06 00:56:18;;;;;;;11.33;1.10;;;;;;;;;;5074561;28;20013;-80
2021/04/06 00:58:43;;;;;;;10.30;1.60;;;;;;;;;;5074463;28;20493;-80
2021/04/06 01:01:09;;;;;;;16.77;1.97;;;;;;;;;;5073998;28;20032;-80
2021/04/06 01:03:36;;;;;;;12.77;1.30;;;;;;;;;;5075549;28;20024;-79
2021/04/06 01:06:01;;;;;;;6.23;1.23;;;;;;;;;;5073710;28;20107;-79
2021/04/06 01:08:33;;;;;;;5.97;1.15;;;;;;;;;;5074177;28;20450;-80
2021/04/06 01:10:59;;;;;;;9.90;1.40;;;;;;;;;;5074072;28;20032;-80
2021/04/06 01:13:24;;;;;;;7.50;1.47;;;;;;;;;;5058506;28;20025;-80
2021/04/06 01:15:50;;;;;;;9.47;1.00;;;;;;;;;;5053916;28;20037;-80
2021/04/06 01:18:16;;;;;;;6.70;1.20;;;;;;;;;;5070747;28;20078;-80
2021/04/06 01:20:41;;;;;;;7.13;1.07;;;;;;;;;;5073529;28;20012;-80
2021/04/06 01:23:11;;;;;;;11.17;1.10;;;;;;;;;;5075109;28;20035;-80
2021/04/06 01:25:41;;;;;;;10.80;1.67;;;;;;;;;;5073776;28;20028;-79
2021/04/06 01:28:08;;;;;;;10.63;1.73;;;;;;;;;;5073895;28;20111;-79
2021/04/06 01:30:47;;;;;;;7.23;0.90;;;;;;;;;;5073065;28;20036;-79
2021/04/06 01:33:12;;;;;;;15.83;2.40;;;;;;;;;;5073649;28;20054;-80
2021/04/06 01:35:38;;;;;;;6.73;1.20;;;;;;;;;;5073858;28;20401;-79
2021/04/06 01:38:04;;;;;;;16.20;1.93;;;;;;;;;;5074812;28;20028;-80
2021/04/06 01:40:29;;;;;;;21.67;3.33;;;;;;;;;;5073589;28;20017;-80
2021/04/06 01:42:55;;;;;;;10.10;1.20;;;;;;;;;;5073738;28;20028;-79
2021/04/06 01:45:21;;;;;;;12.87;1.43;;;;;;;;;;5072797;28;20017;-79
2021/04/06 01:47:46;;;;;;;4.83;1.00;;;;;;;;;;5073379;28;20024;-80
2021/04/06 01:50:13;;;;;;;7.33;1.23;;;;;;;;;;5073376;28;20077;-79
2021/04/06 01:52:39;;;;;;;9.60;1.40;;;;;;;;;;5073653;28;20103;-79
2021/04/06 01:55:11;;;;;;;12.07;0.83;;;;;;;;;;5073362;28;20490;-79
2021/04/06 01:57:40;;;;;;;;;;;;;;;;;;5073748;28;20158;-79
2021/04/06 02:00:36;;;;;;;19.43;1.30;;;;;;;;;;5073336;28;19916;-79
2021/04/06 02:03:05;;;;;;;8.87;1.20;;;;;;;;;;5064772;28;20013;-79
2021/04/06 02:05:31;;;;;;;11.83;1.43;;;;;;;;;;5072768;28;20474;-80
2021/04/06 02:07:59;;;;;;;10.27;1.57;;;;;;;;;;5072802;28;20028;-79
2021/04/06 02:10:25;;;;;;;9.67;1.13;;;;;;;;;;5073078;28;20035;-79
2021/04/06 02:12:50;;;;;;;11.87;1.40;;;;;;;;;;5074375;28;20025;-80
2021/04/06 02:15:15;;;;;;;15.70;1.90;;;;;;;;;;5073240;28;20072;-79
2021/04/06 02:17:50;;;;;;;11.57;1.10;;;;;;;;;;5074423;28;20016;-79
2021/04/06 02:20:19;;;;;;;11.00;1.80;;;;;;;;;;5073111;28;20029;-80
2021/04/06 02:22:53;;;;;;;12.27;2.50;;;;;;;;;;5072508;28;20036;-79
2021/04/06 02:25:18;;;;;;;15.70;2.00;;;;;;;;;;5064644;28;20515;-80
2021/04/06 02:27:43;;;;;;;16.17;2.03;;;;;;;;;;5072706;28;20059;-80
2021/04/06 02:30:09;;;;;;;15.60;2.23;;;;;;;;;;5072882;28;20020;-80
2021/04/06 02:32:35;;;;;;;13.73;1.67;;;;;;;;;;5074005;28;20033;-80
2021/04/06 02:35:11;;;;;;;14.80;1.80;;;;;;;;;;5072845;28;20124;-80
2021/04/06 02:37:38;;;;;;;20.00;1.93;;;;;;;;;;5072474;28;20031;-80
2021/04/06 02:40:07;;;;;;;9.87;1.73;;;;;;;;;;5072490;28;20030;-80
2021/04/06 02:42:33;;;;;;;8.13;1.53;;;;;;;;;;5072306;28;20116;-80
2021/04/06 02:45:07;;;;;;;20.60;2.10;;;;;;;;;;5072437;28;20048;-80
2021/04/06 02:47:33;;;;;;;23.60;2.10;;;;;;;;;;5072697;28;20131;-80
2021/04/06 02:49:59;;;;;;;13.00;2.30;;;;;;;;;;5073624;28;20372;-80
2021/04/06 02:52:24;;;;;;;12.30;1.47;;;;;;;;;;5072303;28;20035;-80
2021/04/06 02:54:50;;;;;;;14.43;2.23;;;;;;;;;;5073457;28;20020;-80
2021/04/06 02:57:22;;;;;;;12.93;1.93;;;;;;;;;;5073500;28;20029;-80
2021/04/06 02:59:47;;;;;;;15.52;1.83;;;;;;;;;;5073402;28;20464;-80
2021/04/06 03:02:13;;;;;;;13.03;1.50;;;;;;;;;;5072166;28;20027;-80
2021/04/06 03:04:45;;;;;;;16.40;2.10;;;;;;;;;;5072241;28;20017;-80
2021/04/06 03:07:21;;;;;;;11.13;1.35;;;;;;;;;;5072930;28;20447;-80
2021/04/06 03:09:50;;;;;;;7.10;1.43;;;;;;;;;;5072084;28;20036;-79
2021/04/06 03:12:16;;;;;;;9.07;1.33;;;;;;;;;;5071813;28;20032;-80
2021/04/06 03:14:41;;;;;;;13.13;1.23;;;;;;;;;;5072063;28;20028;-80
2021/04/06 03:17:06;;;;;;;13.97;1.53;;;;;;;;;;5072944;28;20033;-80
2021/04/06 03:19:32;;;;;;;12.27;1.63;;;;;;;;;;5072646;28;20016;-80
2021/04/06 03:21:57;;;;;;;12.40;1.30;;;;;;;;;;5071424;28;20111;-80
2021/04/06 03:24:23;;;;;;;16.47;1.50;;;;;;;;;;5071394;28;20055;-80
2021/04/06 03:26:48;;;;;;;11.03;1.27;;;;;;;;;;5071774;28;20449;-80
2021/04/06 03:29:13;;;;;;;14.83;1.30;;;;;;;;;;5071700;28;20493;-80
2021/04/06 03:31:39;;;;;;;10.60;1.20;;;;;;;;;;5071337;28;20016;-80
2021/04/06 03:34:04;;;;;;;10.67;1.50;;;;;;;;;;5071619;28;20533;-80
2021/04/06 03:36:32;;;;;;;15.20;1.60;;;;;;;;;;5071417;28;20088;-80
2021/04/06 03:38:58;;;;;;;18.27;2.13;;;;;;;;;;5072851;28;20021;-80
2021/04/06 03:41:25;;;;;;;11.90;1.40;;;;;;;;;;5071485;28;20024;-80
2021/04/06 03:43:51;;;;;;;9.87;1.40;;;;;;;;;;5071567;28;20016;-79
2021/04/06 03:46:25;;;;;;;16.37;2.87;;;;;;;;;;5072678;28;20028;-80
2021/04/06 03:48:51;;;;;;;11.70;1.70;;;;;;;;;;5071572;28;20732;-80
2021/04/06 03:51:24;;;;;;;18.90;1.77;;;;;;;;;;5071277;28;20048;-80
2021/04/06 03:53:50;;;;;;;14.23;1.90;;;;;;;;;;5071391;28;20429;-80
2021/04/06 03:56:16;;;;;;;13.97;2.00;;;;;;;;;;5070915;28;20471;-79
2021/04/06 03:58:44;;;;;;;10.30;1.07;;;;;;;;;;5070948;28;20024;-80
2021/04/06 04:01:13;;;;;;;13.77;1.20;;;;;;;;;;5071310;28;20074;-80
2021/04/06 04:03:38;;;;;;;12.80;1.50;;;;;;;;;;5071128;28;20625;-80
2021/04/06 04:06:04;;;;;;;13.40;1.70;;;;;;;;;;5071279;28;20012;-80
2021/04/06 04:08:29;;;;;;;9.97;1.53;;;;;;;;;;5071055;28;20033;-80
2021/04/06 04:10:54;;;;;;;14.67;1.30;;;;;;;;;;5072600;28;20413;-80
2021/04/06 04:13:20;;;;;;;14.33;1.33;;;;;;;;;;5070870;28;20028;-80
2021/04/06 04:15:45;;;;;;;7.93;1.43;;;;;;;;;;5071027;28;20025;-80
2021/04/06 04:18:10;;;;;;;21.60;2.07;;;;;;;;;;5071246;28;20033;-80
2021/04/06 04:20:36;;;;;;;14.10;1.43;;;;;;;;;;5071072;28;20016;-80
2021/04/06 04:23:01;;;;;;;19.07;2.47;;;;;;;;;;5070998;28;20016;-80
2021/04/06 04:25:26;;;;;;;9.40;1.33;;;;;;;;;;5070893;28;20094;-80
2021/04/06 04:27:51;;;;;;;16.23;1.63;;;;;;;;;;5070919;28;20012;-80
2021/04/06 04:30:35;;;;;;;12.60;1.67;;;;;;;;;;5075123;28;20020;-79
2021/04/06 04:33:00;;;;;;;16.10;1.67;;;;;;;;;;5075021;28;20423;-80
2021/04/06 04:35:26;;;;;;;11.30;1.30;;;;;;;;;;5075025;28;20035;-79
2021/04/06 04:37:51;;;;;;;13.07;1.53;;;;;;;;;;5075900;28;20463;-80
2021/04/06 04:40:16;;;;;;;12.87;1.80;;;;;;;;;;5074957;28;20503;-80
2021/04/06 04:42:41;;;;;;;13.47;1.67;;;;;;;;;;5076197;28;20031;-80
2021/04/06 04:45:09;;;;;;;13.97;1.40;;;;;;;;;;5075988;28;20428;-79
2021/04/06 04:47:34;;;;;;;12.33;1.30;;;;;;;;;;5074847;28;20377;-79
2021/04/06 04:49:59;;;;;;;3.60;1.00;;;;;;;;;;5074659;28;20119;-79
2021/04/06 04:52:24;;;;;;;9.23;1.20;;;;;;;;;;5075964;28;20028;-79
2021/04/06 04:54:49;;;;;;;14.23;1.63;;;;;;;;;;5075403;28;20048;-79
2021/04/06 04:57:15;;;;;;;16.03;1.60;;;;;;;;;;5075625;28;20046;-80
2021/04/06 04:59:40;;;;;;;10.67;1.23;;;;;;;;;;5074636;28;20470;-80
2021/04/06 05:02:06;;;;;;;13.10;0.93;;;;;;;;;;5074053;28;20037;-80
2021/04/06 05:04:31;;;;;;;7.63;1.03;;;;;;;;;;5074569;28;20410;-80
2021/04/06 05:06:56;;;;;;;7.50;1.30;;;;;;;;;;5074271;28;20028;-80
2021/04/06 05:09:21;;;;;;;10.10;1.13;;;;;;;;;;5074336;28;20027;-80
2021/04/06 05:11:47;;;;;;;10.60;1.13;;;;;;;;;;5075487;28;20016;-79
2021/04/06 05:14:12;;;;;;;6.17;0.83;;;;;;;;;;5075489;28;20028;-80
2021/04/06 05:16:37;;;;;;;9.60;1.27;;;;;;;;;;5075629;28;20012;-80
2021/04/06 05:19:02;;;;;;;7.57;1.23;;;;;;;;;;5074039;28;20025;-79
2021/04/06 05:21:27;;;;;;;7.40;0.87;;;;;;;;;;5075350;28;20044;-80
2021/04/06 05:23:53;;;;;;;5.83;0.83;;;;;;;;;;5074075;28;20013;-79
2021/04/06 05:26:18;;;;;;;6.30;1.00;;;;;;;;;;5073997;28;20099;-79
2021/04/06 05:28:43;;;;;;;10.00;1.77;;;;;;;;;;5073828;28;20048;-79
2021/04/06 05:31:08;;;;;;;6.03;0.90;;;;;;;;;;5073996;28;20035;-80
2021/04/06 05:33:34;;;;;;;10.47;1.17;;;;;;;;;;5073394;28;20052;-79
2021/04/06 05:35:59;;;;;;;7.90;1.33;;;;;;;;;;5073688;28;20017;-80
2021/04/06 05:38:24;;;;;;;13.07;1.60;;;;;;;;;;5073902;28;20073;-79
2021/04/06 05:40:50;;;;;;;12.80;1.57;;;;;;;;;;5073175;28;20095;-80
2021/04/06 05:43:15;;;;;;;15.17;1.90;;;;;;;;;;5073451;28;20028;-79
2021/04/06 05:45:43;;;;;;;13.97;2.70;;;;;;;;;;5073700;28;20124;-79
2021/04/06 05:48:12;;;;;;;13.03;2.47;;;;;;;;;;5073478;28;20074;-79
2021/04/06 05:50:37;;;;;;;7.10;1.10;;;;;;;;;;5073684;28;20056;-79
2021/04/06 05:53:03;;;;;;;6.40;1.10;;;;;;;;;;5073476;28;20055;-79
2021/04/06 05:55:28;;;;;;;10.47;2.00;;;;;;;;;;5073121;28;20547;-79
2021/04/06 05:57:56;;;;;;;8.47;0.80;;;;;;;;;;5072365;28;20127;-79
2021/04/06 06:00:22;;;;;;;9.83;1.10;;;;;;;;;;5072781;28;20048;-79
2021/04/06 06:02:47;;;;;;;6.53;0.80;;;;;;;;;;5072550;28;20472;-79
2021/04/06 06:05:13;;;;;;;4.13;0.80;;;;;;;;;;5073006;28;20020;-79
2021/04/06 06:07:38;;;;;;;4.40;0.80;;;;;;;;;;5073025;28;20029;-79
2021/04/06 06:10:22;;;;;;;5.67;0.83;;;;;;;;;;5074302;28;20141;-79
2021/04/06 06:12:47;;;;;;;8.50;1.10;;;;;;;;;;5074365;28;20039;-79
2021/04/06 06:15:12;;;;;;;9.63;1.03;;;;;;;;;;5074240;28;20024;-79
2021/04/06 06:17:38;;;;;;;8.13;1.03;;;;;;;;;;5073072;28;20529;-79
2021/04/06 06:20:14;;;;;;;11.70;1.30;;;;;;;;;;5073000;28;20043;-79
2021/04/06 06:22:39;;;;;;;6.00;1.10;;;;;;;;;;5103031;28;20115;-79
2021/04/06 06:25:09;;;;;;;6.23;1.17;;;;;;;;;;5074347;28;20207;-79
2021/04/06 06:27:42;;;;;;;3.63;0.90;;;;;;;;;;5072254;28;20099;-79
2021/04/06 06:30:28;;;;;;;7.83;1.27;;;;;;;;;;5094585;28;20372;-78
2021/04/06 06:33:11;;;;;;;7.10;1.00;;;;;;;;;;5073893;28;21381;-79
2021/04/06 06:35:37;;;;;;;5.13;1.00;;;;;;;;;;5072770;28;20427;-79
2021/04/06 06:38:34;;;;;;;6.87;0.90;;;;;;;;;;5073518;28;20016;-79
2021/04/06 06:41:11;;;;;;;3.93;0.97;;;;;;;;;;5060519;28;20033;-79
2021/04/06 06:43:44;;;;;;;3.57;0.90;;;;;;;;;;5070092;28;20016;-79
2021/04/06 06:46:16;;;;;;;2.50;0.90;;;;;;;;;;5068770;28;20017;-79
2021/04/06 06:49:02;;;;;;;4.38;0.77;;;;;;;;;;5101938;28;20020;-79
2021/04/06 06:51:28;;;;;;;5.57;1.13;;;;;;;;;;5066974;28;20024;-79
2021/04/06 06:53:54;;;;;;;4.50;0.73;;;;;;;;;;5066016;28;20032;-79
2021/04/06 06:56:19;;;;;;;4.20;1.00;;;;;;;;;;5060698;28;20025;-79
2021/04/06 06:58:44;;;;;;;3.90;0.60;;;;;;;;;;5057351;28;20048;-79
2021/04/06 07:01:23;;;;;;;2.90;1.00;;;;;;;;;;5059169;28;20036;-79
2021/04/06 07:04:05;;;;;;;4.50;1.00;;;;;;;;;;5063404;28;20074;-79
2021/04/06 07:06:30;;;;;;;5.72;1.80;;;;;;;;;;5054067;28;20009;-80
2021/04/06 07:08:56;;;;;;;7.13;1.30;;;;;;;;;;5053305;28;20039;-78
2021/04/06 07:11:21;;;;;;;4.30;1.70;;;;;;;;;;5056258;28;20021;-79
2021/04/06 07:13:53;;;;;;;7.43;1.13;;;;;;;;;;5074211;28;20343;-79
2021/04/06 07:16:19;;;;;;;2.37;0.83;;;;;;;;;;5084218;28;20560;-79
2021/04/06 07:18:44;;;;;;;3.40;0.93;;;;;;;;;;5069958;28;20103;-79
2021/04/06 07:21:11;;;;;;;5.27;1.27;;;;;;;;;;5068235;28;20016;-79
2021/04/06 07:23:52;;;;;;;5.33;1.23;;;;;;;;;;5069776;28;20096;-79
2021/04/06 07:26:18;;;;;;;3.90;0.87;;;;;;;;;;5069589;28;20016;-79
2021/04/06 07:28:44;;;;;;;7.43;1.17;;;;;;;;;;5068295;28;20074;-79
2021/04/06 07:31:10;;;;;;;2.53;0.87;;;;;;;;;;5069389;28;20021;-79
2021/04/06 07:33:36;;;;;;;4.20;0.97;;;;;;;;;;5069353;28;20048;-79
2021/04/06 07:36:03;;;;;;;2.87;1.03;;;;;;;;;;5069446;28;20472;-79
2021/04/06 07:38:28;;;;;;;4.53;0.90;;;;;;;;;;5068135;28;20487;-79
2021/04/06 07:40:54;;;;;;;4.57;1.13;;;;;;;;;;5068208;28;20021;-79
2021/04/06 07:43:20;;;;;;;4.13;0.90;;;;;;;;;;5067812;28;20487;-79
2021/04/06 07:45:45;;;;;;;2.67;0.87;;;;;;;;;;5068771;28;20104;-79
2021/04/06 07:48:11;;;;;;;3.50;1.20;;;;;;;;;;5068434;28;20851;-79
2021/04/06 07:50:43;;;;;;;3.23;0.90;;;;;;;;;;5067337;28;20048;-79
2021/04/06 07:53:19;;;;;;;3.15;1.27;;;;;;;;;;5067024;28;20025;-79
2021/04/06 07:55:44;;;;;;;3.70;1.10;;;;;;;;;;5067565;28;20070;-79
2021/04/06 07:58:09;;;;;;;4.40;1.33;;;;;;;;;;5066077;28;20103;-79
2021/04/06 08:00:47;;;;;;;8.23;1.83;;;;;;;;;;5064928;28;20013;-79
2021/04/06 08:03:13;;;;;;;5.00;1.77;;;;;;;;;;5066989;28;20044;-79
2021/04/06 08:05:38;;;;;;;3.23;1.33;;;;;;;;;;5067389;28;20029;-79
2021/04/06 08:08:22;;;;;;;5.67;1.97;;;;;;;;;;5067240;28;20033;-79
2021/04/06 08:10:47;;;;;;;7.87;2.73;;;;;;;;;;5067392;28;20020;-79
2021/04/06 08:13:12;;;;;;;8.10;2.70;;;;;;;;;;5093304;28;20035;-79
2021/04/06 08:15:38;;;;;;;5.33;2.60;;;;;;;;;;5097511;28;20071;-79
2021/04/06 08:18:04;;;;;;;6.47;2.43;;;;;;;;;;5061427;28;20028;-79
2021/04/06 08:20:33;;;;;;;5.43;2.20;;;;;;;;;;5067102;28;20095;-79
2021/04/06 08:23:00;;;;;;;10.33;3.23;;;;;;;;;;5068178;28;20021;-79
2021/04/06 08:25:29;;;;;;;6.53;2.40;;;;;;;;;;5043362;28;20025;-79
2021/04/06 08:27:58;;;;;;;7.63;2.47;;;;;;;;;;5051888;28;20025;-79
2021/04/06 08:30:26;;;;;;;8.77;2.77;;;;;;;;;;5044092;28;20028;-79
2021/04/06 08:32:58;;;;;;;8.33;2.50;;;;;;;;;;5046905;28;20028;-79
2021/04/06 08:35:42;;;;;;;6.70;2.60;;;;;;;;;;5060529;28;20099;-78
2021/04/06 08:38:22;;;;;;;6.60;2.20;;;;;;;;;;5046786;28;20044;-78
2021/04/06 08:40:55;;;;;;;7.67;2.50;;;;;;;;;;5052973;28;20358;-79
2021/04/06 08:43:20;;;;;;;;;;;;;;;;;;5053029;28;20095;-79
2021/04/06 08:46:12;;;;;;;13.20;3.42;;;;;;;;;;5053438;28;19948;-79
2021/04/06 08:48:52;;;;;;;7.97;2.60;;;;;;;;;;5044088;28;20037;-79
2021/04/06 08:51:38;;;;;;;9.90;3.10;;;;;;;;;;5050674;28;20017;-79
2021/04/06 08:54:05;;;;;;;10.17;3.30;;;;;;;;;;5049666;28;20075;-79
2021/04/06 08:56:31;;;;;;;8.27;3.07;;;;;;;;;;5048878;28;20024;-79
2021/04/06 08:59:16;;;;;;;16.27;3.30;;;;;;;;;;5052699;28;20043;-79
2021/04/06 09:01:42;;;;;;;12.07;3.30;;;;;;;;;;5050266;28;20392;-79
2021/04/06 09:04:08;;;;;;;12.63;3.57;;;;;;;;;;5053248;28;20025;-79
2021/04/06 09:06:33;;;;;;;11.43;3.20;;;;;;;;;;5051019;28;20020;-79
2021/04/06 09:08:59;;;;;;;13.93;3.67;;;;;;;;;;5040249;28;20013;-79
2021/04/06 09:11:24;;;;;;;13.93;3.60;;;;;;;;;;5052993;28;20412;-79
2021/04/06 09:13:50;;;;;;;13.87;2.90;;;;;;;;;;5050175;28;20044;-79
2021/04/06 09:16:25;;;;;;;14.57;2.13;;;;;;;;;;5050884;28;20021;-79
2021/04/06 09:18:54;;;;;;;11.13;2.00;;;;;;;;;;5051725;28;20052;-79
2021/04/06 09:21:22;;;;;;;11.40;3.03;;;;;;;;;;5052550;28;20045;-79
2021/04/06 09:23:50;;;;;;;33.53;12.77;;;;;;;;;;5052832;28;20021;-79
2021/04/06 09:26:15;;;;;;;12.67;2.30;;;;;;;;;;5052626;28;20025;-79
2021/04/06 09:28:40;;;;;;;13.33;2.00;;;;;;;;;;5066726;28;20017;-80
2021/04/06 09:31:06;;;;;;;10.97;3.10;;;;;;;;;;5069339;28;20369;-80
2021/04/06 09:33:32;;;;;;;5.07;1.10;;;;;;;;;;5052738;28;20009;-80
2021/04/06 09:35:57;;;;;;;6.30;1.43;;;;;;;;;;5051811;28;20074;-80
2021/04/06 09:38:23;;;;;;;6.70;0.90;;;;;;;;;;5053545;28;20032;-80
2021/04/06 09:40:48;;;;;;;6.50;1.00;;;;;;;;;;5052521;28;20028;-79
2021/04/06 09:43:14;;;;;;;3.97;1.70;;;;;;;;;;5053797;28;20353;-79
2021/04/06 09:45:39;;;;;;;9.87;3.57;;;;;;;;;;5052467;28;20027;-80
2021/04/06 09:48:05;;;;;;;13.27;5.57;;;;;;;;;;5053634;28;20203;-79
2021/04/06 09:50:31;;;;;;;16.40;5.03;;;;;;;;;;5049954;28;20032;-79
2021/04/06 09:52:56;;;;;;;8.63;3.90;;;;;;;;;;5051968;28;20029;-79
2021/04/06 09:55:22;;;;;;;6.97;2.77;;;;;;;;;;5053272;28;20009;-80
2021/04/06 09:57:48;;;;;;;6.67;1.60;;;;;;;;;;5052311;28;20120;-79
2021/04/06 10:00:16;;;;;;;4.77;0.93;;;;;;;;;;5053234;28;20089;-79
2021/04/06 10:02:42;;;;;;;6.10;1.33;;;;;;;;;;5051009;28;20036;-79
2021/04/06 10:05:18;;;;;;;9.07;1.60;;;;;;;;;;5051715;28;20376;-79
2021/04/06 10:07:47;;;;;;;5.00;1.30;;;;;;;;;;5052003;28;20123;-80
2021/04/06 10:10:19;;;;;;;4.90;1.10;;;;;;;;;;5048519;28;20053;-79
2021/04/06 10:12:45;;;;;;;6.73;0.90;;;;;;;;;;5051580;28;20544;-79
2021/04/06 10:15:10;;;;;;;3.17;1.20;;;;;;;;;;5051333;28;20021;-79
2021/04/06 10:17:37;;;;;;;5.57;1.47;;;;;;;;;;5052837;28;20016;-79
2021/04/06 10:20:04;;;;;;;8.50;2.13;;;;;;;;;;5044416;28;20025;-79
2021/04/06 10:22:38;;;;;;;7.47;2.23;;;;;;;;;;5052554;28;20108;-79
2021/04/06 10:25:04;;;;;;;10.27;3.13;;;;;;;;;;5052947;28;20037;-79
2021/04/06 10:27:36;;;;;;;12.20;3.30;;;;;;;;;;5051465;28;20052;-78
2021/04/06 10:30:03;;;;;;;22.43;5.27;;;;;;;;;;5051495;28;20024;-79
2021/04/06 10:32:30;;;;;;;19.43;5.10;;;;;;;;;;5051360;28;20064;-79
2021/04/06 10:35:01;;;;;;;14.33;3.50;;;;;;;;;;5052225;28;20108;-79
2021/04/06 10:37:37;;;;;;;16.40;3.70;;;;;;;;;;5051575;28;20029;-79
2021/04/06 10:40:02;;;;;;;8.60;2.70;;;;;;;;;;5051489;28;20020;-79
2021/04/06 10:42:28;;;;;;;13.57;3.07;;;;;;;;;;5051368;28;20477;-79
2021/04/06 10:44:55;;;;;;;10.80;2.60;;;;;;;;;;5050902;28;20029;-79
2021/04/06 10:47:25;;;;;;;10.90;2.57;;;;;;;;;;5063648;28;20086;-79
2021/04/06 10:49:57;;;;;;;12.97;2.73;;;;;;;;;;5052114;28;20104;-79
2021/04/06 10:52:23;;;;;;;;;;;;;;;;;;5051685;28;20119;-79
2021/04/06 10:54:51;;;;;;;14.02;4.25;;;;;;;;;;5050650;28;19948;-79
2021/04/06 10:57:25;;;;;;;9.97;3.50;;;;;;;;;;5048057;28;20448;-79
2021/04/06 10:59:50;;;;;;;11.17;3.13;;;;;;;;;;5050800;28;20029;-79
2021/04/06 11:02:20;;;;;;;11.17;3.17;;;;;;;;;;5050734;28;20021;-79
2021/04/06 11:04:45;;;;;;;8.30;3.50;;;;;;;;;;5050895;28;20488;-79
2021/04/06 11:07:10;;;;;;;8.27;2.53;;;;;;;;;;5050932;28;20031;-79
2021/04/06 11:09:37;;;;;;;8.00;2.80;;;;;;;;;;5051278;28;20036;-79
2021/04/06 11:12:03;;;;;;;9.57;3.23;;;;;;;;;;5066925;28;20029;-79
2021/04/06 11:14:30;;;;;;;10.43;2.80;;;;;;;;;;5050924;28;20025;-79
2021/04/06 11:16:56;;;;;;;6.87;2.70;;;;;;;;;;5055441;28;20029;-80
2021/04/06 11:19:31;;;;;;;5.90;2.63;;;;;;;;;;5050672;28;20388;-79
2021/04/06 11:21:57;;;;;;;12.93;4.20;;;;;;;;;;5050804;28;20494;-80
2021/04/06 11:24:24;;;;;;;5.87;0.97;;;;;;;;;;5050656;28;20029;-79
2021/04/06 11:26:50;;;;;;;6.83;1.30;;;;;;;;;;5050464;28;20079;-79
2021/04/06 11:29:17;;;;;;;2.80;0.90;;;;;;;;;;5050380;28;20041;-80
2021/04/06 11:31:43;;;;;;;2.33;0.80;;;;;;;;;;5052110;28;20071;-79
2021/04/06 11:34:09;;;;;;;6.30;0.80;;;;;;;;;;5051968;28;20479;-79
2021/04/06 11:36:35;;;;;;;3.70;1.00;;;;;;;;;;5049189;28;20025;-79
2021/04/06 11:39:01;;;;;;;5.60;0.97;;;;;;;;;;5051649;28;20028;-79
2021/04/06 11:41:26;;;;;;;5.40;0.97;;;;;;;;;;5049942;28;20096;-81
2021/04/06 11:43:52;;;;;;;4.77;0.93;;;;;;;;;;5050200;28;20115;-80
2021/04/06 11:46:17;;;;;;;5.07;0.90;;;;;;;;;;5049851;28;20109;-80
2021/04/06 11:48:43;;;;;;;3.00;0.90;;;;;;;;;;5050556;28;20036;-81
2021/04/06 11:51:09;;;;;;;6.60;1.10;;;;;;;;;;5050621;28;20043;-80
2021/04/06 11:53:34;;;;;;;5.93;1.30;;;;;;;;;;5049382;28;20028;-80
2021/04/06 11:55:59;;;;;;;4.43;1.27;;;;;;;;;;5066884;28;20107;-81
2021/04/06 11:58:24;;;;;;;11.83;3.67;;;;;;;;;;5050265;28;20079;-80
2021/04/06 12:00:50;;;;;;;10.43;2.87;;;;;;;;;;5048673;28;20097;-79
2021/04/06 12:03:15;;;;;;;8.47;2.33;;;;;;;;;;5053673;28;20107;-80
2021/04/06 12:05:40;;;;;;;9.30;3.17;;;;;;;;;;5054609;28;20057;-80
2021/04/06 12:08:06;;;;;;;9.03;3.50;;;;;;;;;;5055293;28;20036;-80
2021/04/06 12:10:32;;;;;;;12.13;3.77;;;;;;;;;;5068189;28;20005;-80
2021/04/06 12:12:58;;;;;;;11.67;2.53;;;;;;;;;;5053630;28;20021;-79
2021/04/06 12:15:23;;;;;;;4.90;1.97;;;;;;;;;;5053410;28;20017;-79
2021/04/06 12:17:50;;;;;;;8.23;3.00;;;;;;;;;;5055060;28;20088;-79
2021/04/06 12:20:15;;;;;;;8.70;2.50;;;;;;;;;;5053520;28;20025;-79
2021/04/06 12:22:40;;;;;;;6.50;1.97;;;;;;;;;;5054906;28;21051;-79
2021/04/06 12:25:06;;;;;;;10.17;2.10;;;;;;;;;;5053525;28;20017;-79
2021/04/06 12:27:31;;;;;;;8.27;1.60;;;;;;;;;;5058540;28;20507;-79
2021/04/06 12:29:56;;;;;;;13.17;2.33;;;;;;;;;;5053618;28;20021;-79
2021/04/06 12:32:21;;;;;;;16.23;1.63;;;;;;;;;;5051671;28;20035;-79
2021/04/06 12:34:47;;;;;;;7.47;1.00;;;;;;;;;;5053237;28;20032;-78
2021/04/06 12:37:12;;;;;;;6.47;1.23;;;;;;;;;;5054880;28;20036;-79
2021/04/06 12:39:37;;;;;;;7.87;1.40;;;;;;;;;;5054146;28;20021;-79
2021/04/06 12:42:02;;;;;;;3.93;0.90;;;;;;;;;;5053432;28;20032;-79
2021/04/06 12:44:27;;;;;;;6.03;1.13;;;;;;;;;;5053566;28;20024;-78
2021/04/06 12:46:53;;;;;;;4.87;1.40;;;;;;;;;;5054701;28;20078;-79
2021/04/06 12:49:18;;;;;;;9.87;1.57;;;;;;;;;;5053510;28;20017;-79
2021/04/06 12:51:43;;;;;;;5.53;1.57;;;;;;;;;;5053011;28;20021;-79
2021/04/06 12:54:09;;;;;;;5.33;1.33;;;;;;;;;;5054590;28;20024;-79
2021/04/06 12:56:34;;;;;;;3.63;1.13;;;;;;;;;;5052841;28;20063;-78
2021/04/06 12:58:59;;;;;;;4.30;1.47;;;;;;;;;;5054598;28;20468;-78
2021/04/06 13:01:24;;;;;;;6.80;2.83;;;;;;;;;;5053184;28;20017;-78
2021/04/06 13:03:49;;;;;;;5.77;2.03;;;;;;;;;;5054121;28;20013;-79
2021/04/06 13:06:15;;;;;;;1.60;0.87;;;;;;;;;;5054283;28;20033;-78
2021/04/06 13:08:40;;;;;;;3.40;0.93;;;;;;;;;;5052306;28;20044;-79
2021/04/06 13:11:05;;;;;;;2.93;0.90;;;;;;;;;;5052762;28;20417;-78
2021/04/06 13:13:32;;;;;;;3.67;1.10;;;;;;;;;;5052238;28;20044;-79
2021/04/06 13:15:57;;;;;;;7.60;1.20;;;;;;;;;;5052646;28;20089;-78
2021/04/06 13:18:22;;;;;;;7.77;0.90;;;;;;;;;;5047620;28;20060;-77
2021/04/06 13:20:47;;;;;;;4.37;0.77;;;;;;;;;;5052368;28;20074;-78
2021/04/06 13:23:13;;;;;;;4.37;0.80;;;;;;;;;;5053147;28;20066;-78
2021/04/06 13:25:38;;;;;;;4.97;1.20;;;;;;;;;;5053793;28;20024;-78
2021/04/06 13:28:03;;;;;;;5.17;1.17;;;;;;;;;;5049856;28;20029;-78
2021/04/06 13:30:29;;;;;;;2.67;1.07;;;;;;;;;;5050872;28;20059;-77
2021/04/06 13:32:54;;;;;;;5.23;1.37;;;;;;;;;;5051711;28;20028;-77
2021/04/06 13:35:20;;;;;;;6.80;1.47;;;;;;;;;;5052936;28;20023;-78
2021/04/06 13:37:45;;;;;;;6.60;1.73;;;;;;;;;;5052136;28;20071;-78
2021/04/06 13:40:12;;;;;;;9.57;2.30;;;;;;;;;;5039232;28;20029;-78
2021/04/06 13:42:38;;;;;;;8.20;1.70;;;;;;;;;;5037419;28;20468;-78
2021/04/06 13:45:04;;;;;;;6.43;1.33;;;;;;;;;;5049787;28;20048;-78
2021/04/06 13:47:30;;;;;;;4.07;0.97;;;;;;;;;;5050793;28;20068;-78
2021/04/06 13:49:55;;;;;;;2.63;0.50;;;;;;;;;;5050223;28;20428;-78
2021/04/06 13:52:20;;;;;;;4.10;0.50;;;;;;;;;;5047946;28;20031;-78
2021/04/06 13:54:45;;;;;;;3.50;0.60;;;;;;;;;;5048992;28;20103;-78
2021/04/06 13:57:10;;;;;;;1.67;0.60;;;;;;;;;;5049448;28;20710;-78
2021/04/06 13:59:36;;;;;;;5.50;0.60;;;;;;;;;;5050918;28;20063;-78
2021/04/06 14:02:01;;;;;;;3.73;0.90;;;;;;;;;;5041352;28;20025;-78
2021/04/06 14:04:26;;;;;;;8.47;1.10;;;;;;;;;;5048765;28;20515;-78
2021/04/06 14:06:51;;;;;;;3.13;0.97;;;;;;;;;;5036636;28;20083;-78
2021/04/06 14:09:16;;;;;;;6.97;0.80;;;;;;;;;;5050113;28;20066;-78
2021/04/06 14:11:42;;;;;;;3.13;0.97;;;;;;;;;;5050311;28;20024;-78
2021/04/06 14:14:07;;;;;;;4.27;1.07;;;;;;;;;;5046965;28;20017;-77
2021/04/06 14:16:32;;;;;;;7.27;1.30;;;;;;;;;;5057746;28;20033;-78
2021/04/06 14:18:58;;;;;;;7.20;1.77;;;;;;;;;;5048617;28;20029;-77
2021/04/06 14:21:23;;;;;;;4.10;1.47;;;;;;;;;;5049927;28;20013;-78
2021/04/06 14:23:49;;;;;;;6.53;0.70;;;;;;;;;;5051650;28;20029;-78
2021/04/06 14:26:14;;;;;;;3.90;0.57;;;;;;;;;;5051356;28;20048;-78
2021/04/06 14:28:39;;;;;;;3.63;0.80;;;;;;;;;;5052608;28;20017;-78
2021/04/06 14:31:05;;;;;;;9.77;2.90;;;;;;;;;;5052262;28;20163;-78
2021/04/06 14:33:30;;;;;;;4.83;0.80;;;;;;;;;;5051260;28;20017;-78
2021/04/06 14:35:55;;;;;;;3.50;0.50;;;;;;;;;;5050173;28;20021;-78
2021/04/06 14:38:21;;;;;;;5.90;1.43;;;;;;;;;;5050120;28;20017;-79
2021/04/06 14:40:47;;;;;;;5.33;0.90;;;;;;;;;;5060332;28;20031;-78